METAR & TAF Report
Available data for CYAM from the past 6 hours
SAULT STE MARIE, ON
Metar
CYAM 260500Z VRB02KT 15SM BKN072 OVC090 18/15 A2969 RMK AC7AS1 SLP054 DENSITY ALT 1400FT

05:00 UTC

Wind: ° 2kt

Visibility: 15 SM

Sky: BKN 7200 ft

Temp: 18 deg C / 64.4 deg F

Dewpoint: 15 deg C / 59 deg F

Pressure: 29.69 inHg

TAF
TAF AMD CYAM 260448Z 2604/2614 VRB03KT 6SM BR SCT005 BKN060 TEMPO 2604/2608 3SM BR BKN005 OVC060 PROB30 2604/2608 2SM TSRA BR BKN030CB FM260800 VRB03KT 1SM BR BKN005 TEMPO 2608/2614 4SM BR SCT005 BKN050 PROB30 2608/2612 2SM TSRA BR BKN050CB RMK NXT FCST BY 260800Z
NOTAM

Click here for NOTAMs.